Time,TemperatureF,DewpointF,PressureIn,WindDirection,WindDirectionDegrees,WindSpeedMPH,WindSpeedGustMPH,Humidity,HourlyPrecipIn,Conditions,Clouds,dailyrainin,SoftwareType,DateUTC
2013-09-25 00:02:00,47.3,44.0,29.81,North,-999,0.0,0.0,88,0.00,,,0.00,ow4j130826,2013-09-25 07:02:00,
2013-09-25 00:07:00,47.3,44.0,29.81,North,-999,0.0,0.0,88,0.00,,,0.00,ow4j130826,2013-09-25 07:07:00,
2013-09-25 00:12:00,47.4,44.2,29.81,North,-999,0.0,0.0,89,0.00,,,0.00,ow4j130826,2013-09-25 07:12:00,
2013-09-25 00:17:00,47.5,44.4,29.81,North,-999,0.0,0.0,89,0.00,,,0.00,ow4j130826,2013-09-25 07:17:00,
2013-09-25 00:22:00,47.5,44.4,29.81,North,-999,0.0,0.0,89,0.00,,,0.00,ow4j130826,2013-09-25 07:22:00,
2013-09-25 00:27:00,47.5,44.4,29.81,North,-999,0.0,0.0,89,0.00,,,0.00,ow4j130826,2013-09-25 07:27:00,
2013-09-25 00:32:00,47.4,44.3,29.81,North,-999,0.0,0.0,89,0.00,,,0.00,ow4j130826,2013-09-25 07:32:00,
2013-09-25 00:37:00,47.4,44.3,29.81,North,-999,0.0,0.0,89,0.00,,,0.00,ow4j130826,2013-09-25 07:37:00,
2013-09-25 00:42:00,47.5,44.4,29.81,North,-999,0.0,0.0,89,0.00,,,0.00,ow4j130826,2013-09-25 07:42:00,
2013-09-25 00:47:00,47.5,44.3,29.81,North,-999,0.0,0.0,89,0.00,,,0.00,ow4j130826,2013-09-25 07:47:00,
2013-09-25 00:52:00,47.7,44.5,29.82,North,-999,0.0,0.0,89,0.00,,,0.00,ow4j130826,2013-09-25 07:52:00,
2013-09-25 00:57:00,47.9,44.8,29.82,North,-999,0.0,0.0,89,0.00,,,0.00,ow4j130826,2013-09-25 07:57:00,
2013-09-25 01:02:00,47.9,44.9,29.82,North,-999,0.0,0.0,89,0.00,,,0.00,ow4j130826,2013-09-25 08:02:00,
2013-09-25 01:07:00,47.8,44.8,29.82,North,-999,0.0,0.0,89,0.00,,,0.00,ow4j130826,2013-09-25 08:07:00,
2013-09-25 01:12:00,47.8,44.8,29.82,North,-999,0.0,0.0,89,0.00,,,0.00,ow4j130826,2013-09-25 08:12:00,
2013-09-25 01:17:00,47.9,44.9,29.82,North,-999,0.0,0.0,89,0.00,,,0.00,ow4j130826,2013-09-25 08:17:00,
2013-09-25 01:23:00,48.0,45.0,29.82,North,-999,0.0,0.0,89,0.00,,,0.00,ow4j130826,2013-09-25 08:23:00,
2013-09-25 01:28:00,47.9,45.0,29.82,North,-999,0.0,0.0,90,0.00,,,0.00,ow4j130826,2013-09-25 08:28:00,
2013-09-25 01:33:00,47.9,45.0,29.82,North,-999,0.0,0.0,90,0.00,,,0.00,ow4j130826,2013-09-25 08:33:00,
2013-09-25 01:38:00,47.9,45.0,29.82,North,-999,0.0,0.0,90,0.00,,,0.00,ow4j130826,2013-09-25 08:38:00,
2013-09-25 01:43:00,48.0,45.2,29.82,North,-999,0.0,0.0,90,0.00,,,0.00,ow4j130826,2013-09-25 08:43:00,
2013-09-25 01:48:00,48.1,45.3,29.82,North,-999,0.0,0.0,90,0.00,,,0.00,ow4j130826,2013-09-25 08:48:00,
2013-09-25 01:53:00,48.1,45.3,29.82,North,-999,0.0,0.0,90,0.00,,,0.00,ow4j130826,2013-09-25 08:53:00,
2013-09-25 01:58:00,48.0,45.3,29.83,North,-999,0.0,0.0,90,0.00,,,0.00,ow4j130826,2013-09-25 08:58:00,
2013-09-25 02:03:00,47.9,45.2,29.83,North,-999,0.0,0.0,90,0.00,,,0.00,ow4j130826,2013-09-25 09:03:00,
2013-09-25 02:08:00,47.8,45.0,29.83,North,-999,0.0,0.0,90,0.00,,,0.00,ow4j130826,2013-09-25 09:08:00,
2013-09-25 02:13:00,47.6,44.9,29.83,North,-999,0.0,0.0,90,0.00,,,0.00,ow4j130826,2013-09-25 09:13:00,
2013-09-25 02:18:00,47.5,44.8,29.83,North,-999,0.0,0.0,90,0.00,,,0.00,ow4j130826,2013-09-25 09:18:00,
2013-09-25 02:23:00,47.5,44.9,29.83,North,-999,0.0,0.0,91,0.00,,,0.00,ow4j130826,2013-09-25 09:23:00,
2013-09-25 02:28:00,47.5,44.9,29.83,North,-999,0.0,0.0,90,0.00,,,0.00,ow4j130826,2013-09-25 09:28:00,
2013-09-25 02:33:00,47.3,44.6,29.83,North,-999,0.0,0.0,90,0.00,,,0.00,ow4j130826,2013-09-25 09:33:00,
2013-09-25 02:38:00,47.1,44.5,29.83,North,-999,0.0,0.0,91,0.00,,,0.00,ow4j130826,2013-09-25 09:38:00,
2013-09-25 02:43:00,47.2,44.6,29.82,North,-999,0.0,0.0,91,0.00,,,0.00,ow4j130826,2013-09-25 09:43:00,
2013-09-25 02:48:00,47.4,44.8,29.82,North,-999,0.0,0.0,91,0.00,,,0.00,ow4j130826,2013-09-25 09:48:00,
2013-09-25 02:53:00,47.3,44.9,29.83,North,-999,0.0,0.0,91,0.00,,,0.00,ow4j130826,2013-09-25 09:53:00,
2013-09-25 02:58:00,47.2,44.8,29.83,North,-999,0.0,0.0,91,0.00,,,0.00,ow4j130826,2013-09-25 09:58:00,
2013-09-25 03:03:00,47.2,44.7,29.83,North,-999,0.0,0.0,91,0.00,,,0.00,ow4j130826,2013-09-25 10:03:00,
2013-09-25 03:08:00,47.2,44.8,29.83,North,-999,0.0,0.0,91,0.00,,,0.00,ow4j130826,2013-09-25 10:08:00,
2013-09-25 03:13:00,47.4,45.0,29.83,North,-999,0.0,0.0,91,0.00,,,0.00,ow4j130826,2013-09-25 10:13:00,
2013-09-25 03:18:00,47.4,45.0,29.83,North,-999,0.0,0.0,91,0.00,,,0.00,ow4j130826,2013-09-25 10:18:00,
2013-09-25 03:23:00,47.3,44.9,29.83,North,-999,0.0,0.0,92,0.00,,,0.00,ow4j130826,2013-09-25 10:23:00,
2013-09-25 03:28:00,47.2,44.8,29.83,North,-999,0.0,0.0,92,0.00,,,0.00,ow4j130826,2013-09-25 10:28:00,
2013-09-25 03:33:00,47.0,44.7,29.83,North,-999,0.0,0.0,92,0.00,,,0.00,ow4j130826,2013-09-25 10:33:00,
2013-09-25 03:38:00,47.0,44.8,29.83,North,-999,0.0,0.0,92,0.00,,,0.00,ow4j130826,2013-09-25 10:38:00,
2013-09-25 03:43:00,47.2,45.0,29.83,North,-999,0.0,0.0,92,0.00,,,0.00,ow4j130826,2013-09-25 10:43:00,
2013-09-25 03:48:00,47.2,45.0,29.83,North,-999,0.0,0.0,92,0.00,,,0.00,ow4j130826,2013-09-25 10:48:00,
2013-09-25 03:53:00,47.0,44.8,29.83,North,-999,0.0,0.0,92,0.00,,,0.00,ow4j130826,2013-09-25 10:53:00,
2013-09-25 03:58:00,47.0,44.8,29.83,North,-999,0.0,0.0,92,0.00,,,0.00,ow4j130826,2013-09-25 10:58:00,
2013-09-25 04:03:00,46.8,44.6,29.83,North,-999,0.0,0.0,92,0.00,,,0.00,ow4j130826,2013-09-25 11:03:00,
2013-09-25 04:08:00,46.7,44.5,29.83,North,-999,0.0,0.0,92,0.00,,,0.00,ow4j130826,2013-09-25 11:08:00,
2013-09-25 04:13:00,46.7,44.5,29.83,North,-999,0.0,0.0,92,0.00,,,0.00,ow4j130826,2013-09-25 11:13:00,
2013-09-25 04:18:00,46.7,44.4,29.84,North,-999,0.0,0.0,92,0.00,,,0.00,ow4j130826,2013-09-25 11:18:00,
2013-09-25 04:23:00,46.8,44.6,29.84,North,-999,0.0,0.0,92,0.00,,,0.00,ow4j130826,2013-09-25 11:23:00,
2013-09-25 04:28:00,46.9,44.8,29.84,North,-999,0.0,0.0,92,0.00,,,0.00,ow4j130826,2013-09-25 11:28:00,
2013-09-25 04:33:00,46.9,44.8,29.84,North,-999,0.0,0.0,92,0.00,,,0.00,ow4j130826,2013-09-25 11:33:00,
2013-09-25 04:38:00,46.8,44.7,29.85,North,-999,0.0,0.0,92,0.00,,,0.00,ow4j130826,2013-09-25 11:38:00,
2013-09-25 04:43:00,46.8,44.7,29.84,North,-999,0.0,0.0,92,0.00,,,0.00,ow4j130826,2013-09-25 11:43:00,
2013-09-25 04:48:00,46.7,44.6,29.84,North,-999,0.0,0.0,92,0.00,,,0.00,ow4j130826,2013-09-25 11:48:00,
2013-09-25 04:53:00,46.8,44.7,29.84,North,-999,0.0,0.0,92,0.00,,,0.00,ow4j130826,2013-09-25 11:53:00,
2013-09-25 04:58:00,46.8,44.7,29.84,North,-999,0.0,0.0,92,0.00,,,0.00,ow4j130826,2013-09-25 11:58:00,
2013-09-25 05:03:00,47.0,44.9,29.84,North,-999,0.0,0.0,93,0.00,,,0.00,ow4j130826,2013-09-25 12:03:00,
2013-09-25 05:08:00,47.1,45.1,29.84,North,-999,0.0,0.0,93,0.00,,,0.00,ow4j130826,2013-09-25 12:08:00,
2013-09-25 05:14:00,47.1,45.1,29.84,North,-999,0.0,0.0,93,0.00,,,0.00,ow4j130826,2013-09-25 12:14:00,
2013-09-25 05:19:00,47.0,45.0,29.84,North,-999,0.0,0.0,93,0.00,,,0.00,ow4j130826,2013-09-25 12:19:00,
2013-09-25 05:24:00,46.9,44.9,29.84,North,-999,0.0,0.0,93,0.00,,,0.00,ow4j130826,2013-09-25 12:24:00,
2013-09-25 05:27:00,46.8,44.8,29.84,North,-999,0.0,0.0,93,0.00,,,0.00,ow4j130826,2013-09-25 12:27:00,
2013-09-25 05:32:00,46.7,44.7,29.85,North,-999,0.0,0.0,92,0.00,,,0.00,ow4j130826,2013-09-25 12:32:00,
2013-09-25 05:37:00,46.7,44.5,29.85,North,-999,0.0,0.0,92,0.00,,,0.00,ow4j130826,2013-09-25 12:37:00,
2013-09-25 05:42:00,46.7,44.6,29.85,North,-999,0.0,0.0,92,0.00,,,0.00,ow4j130826,2013-09-25 12:42:00,
2013-09-25 05:47:00,46.8,44.9,29.85,North,-999,0.0,0.0,93,0.00,,,0.00,ow4j130826,2013-09-25 12:47:00,
2013-09-25 05:52:00,47.1,45.2,29.85,North,-999,0.0,0.0,93,0.00,,,0.00,ow4j130826,2013-09-25 12:52:00,
2013-09-25 05:57:00,47.2,45.3,29.85,North,-999,0.0,0.0,93,0.00,,,0.00,ow4j130826,2013-09-25 12:57:00,
2013-09-25 06:02:00,47.2,45.3,29.85,North,-999,0.0,0.0,93,0.00,,,0.00,ow4j130826,2013-09-25 13:02:00,
2013-09-25 06:07:00,47.1,45.2,29.85,North,-999,0.0,0.0,93,0.00,,,0.00,ow4j130826,2013-09-25 13:07:00,
2013-09-25 06:12:00,46.9,45.0,29.85,North,-999,0.0,0.0,93,0.00,,,0.00,ow4j130826,2013-09-25 13:12:00,
2013-09-25 06:17:00,46.6,44.7,29.85,North,-999,0.0,0.0,93,0.00,,,0.00,ow4j130826,2013-09-25 13:17:00,
2013-09-25 06:22:00,46.5,44.5,29.85,North,-999,0.0,0.0,93,0.00,,,0.00,ow4j130826,2013-09-25 13:22:00,
2013-09-25 06:27:00,46.4,44.4,29.86,North,-999,0.0,0.0,93,0.00,,,0.00,ow4j130826,2013-09-25 13:27:00,
2013-09-25 06:32:00,46.3,44.3,29.86,North,-999,0.0,0.0,93,0.00,,,0.00,ow4j130826,2013-09-25 13:32:00,
2013-09-25 06:37:00,46.4,44.4,29.86,North,-999,0.0,0.0,93,0.00,,,0.00,ow4j130826,2013-09-25 13:37:00,
2013-09-25 06:42:00,46.5,44.6,29.86,North,-999,0.0,0.0,93,0.00,,,0.00,ow4j130826,2013-09-25 13:42:00,
2013-09-25 06:47:00,46.4,44.6,29.86,North,-999,0.0,0.0,93,0.00,,,0.00,ow4j130826,2013-09-25 13:47:00,
2013-09-25 06:52:00,46.5,44.7,29.86,North,-999,0.0,0.0,93,0.00,,,0.00,ow4j130826,2013-09-25 13:52:00,
2013-09-25 06:57:00,46.6,44.7,29.86,North,-999,0.0,0.0,93,0.00,,,0.00,ow4j130826,2013-09-25 13:57:00,
2013-09-25 07:02:00,46.6,44.7,29.86,North,-999,0.0,0.0,93,0.00,,,0.00,ow4j130826,2013-09-25 14:02:00,
2013-09-25 07:07:00,46.5,44.6,29.86,North,-999,0.0,0.0,93,0.00,,,0.00,ow4j130826,2013-09-25 14:07:00,
2013-09-25 07:12:00,46.4,44.5,29.86,North,-999,0.0,0.0,93,0.00,,,0.00,ow4j130826,2013-09-25 14:12:00,
2013-09-25 07:17:00,46.2,44.4,29.87,North,-999,0.0,0.0,93,0.00,,,0.00,ow4j130826,2013-09-25 14:17:00,
2013-09-25 07:22:00,46.1,44.2,29.87,North,-999,0.0,0.0,93,0.00,,,0.00,ow4j130826,2013-09-25 14:22:00,
2013-09-25 07:27:00,45.9,44.0,29.87,North,-999,0.0,0.0,93,0.00,,,0.00,ow4j130826,2013-09-25 14:27:00,
2013-09-25 07:32:00,45.9,43.9,29.87,North,-999,0.0,0.0,93,0.00,,,0.00,ow4j130826,2013-09-25 14:32:00,
2013-09-25 07:37:00,46.0,44.2,29.87,North,-999,0.0,0.0,93,0.00,,,0.00,ow4j130826,2013-09-25 14:37:00,
2013-09-25 07:42:00,46.2,44.5,29.87,North,-999,0.0,0.0,94,0.00,,,0.00,ow4j130826,2013-09-25 14:42:00,
2013-09-25 07:47:00,46.2,44.5,29.87,North,-999,0.0,0.0,94,0.00,,,0.00,ow4j130826,2013-09-25 14:47:00,
2013-09-25 07:52:00,46.2,44.5,29.88,North,-999,0.0,0.0,94,0.00,,,0.00,ow4j130826,2013-09-25 14:52:00,
2013-09-25 07:57:00,46.5,44.8,29.88,North,-999,0.0,0.0,94,0.00,,,0.00,ow4j130826,2013-09-25 14:57:00,
2013-09-25 08:02:00,46.9,45.3,29.88,North,-999,0.0,0.0,94,0.00,,,0.00,ow4j130826,2013-09-25 15:02:00,
2013-09-25 08:07:00,47.1,45.5,29.88,North,-999,0.0,0.0,94,0.00,,,0.00,ow4j130826,2013-09-25 15:07:00,
2013-09-25 08:12:00,47.5,45.9,29.88,North,-999,0.0,0.0,94,0.00,,,0.00,ow4j130826,2013-09-25 15:12:00,
2013-09-25 08:17:00,48.0,46.6,29.88,North,-999,0.0,0.0,95,0.00,,,0.00,ow4j130826,2013-09-25 15:17:00,
2013-09-25 08:23:00,48.5,47.0,29.89,North,-999,0.0,0.0,95,0.00,,,0.00,ow4j130826,2013-09-25 15:23:00,
2013-09-25 08:28:00,49.3,47.7,29.89,North,-999,0.8,2.5,94,0.00,,,0.00,ow4j130826,2013-09-25 15:28:00,
2013-09-25 08:33:00,49.7,47.9,29.89,North,-999,0.1,1.6,94,0.00,,,0.00,ow4j130826,2013-09-25 15:33:00,
2013-09-25 08:38:00,49.8,47.7,29.89,North,-999,0.0,0.0,93,0.00,,,0.00,ow4j130826,2013-09-25 15:38:00,
2013-09-25 08:43:00,50.5,48.1,29.89,North,-999,0.0,0.0,92,0.00,,,0.00,ow4j130826,2013-09-25 15:43:00,
2013-09-25 08:48:00,51.3,48.6,29.89,North,-999,0.0,0.0,91,0.00,,,0.00,ow4j130826,2013-09-25 15:48:00,
2013-09-25 08:53:00,52.1,49.1,29.89,North,-999,0.0,0.0,90,0.00,,,0.00,ow4j130826,2013-09-25 15:53:00,
2013-09-25 08:58:00,52.8,49.2,29.89,North,-999,0.6,2.5,88,0.00,,,0.00,ow4j130826,2013-09-25 15:58:00,
2013-09-25 09:03:00,53.6,49.3,29.89,North,-999,0.0,0.0,85,0.00,,,0.00,ow4j130826,2013-09-25 16:03:00,
2013-09-25 09:08:00,54.6,49.5,29.89,North,-999,0.0,0.8,83,0.00,,,0.00,ow4j130826,2013-09-25 16:08:00,
2013-09-25 09:13:00,54.9,49.2,29.90,North,-999,0.1,0.8,81,0.00,,,0.00,ow4j130826,2013-09-25 16:13:00,
2013-09-25 09:18:00,54.8,48.6,29.90,North,-999,0.2,1.6,80,0.00,,,0.00,ow4j130826,2013-09-25 16:18:00,
2013-09-25 09:23:00,55.0,48.6,29.90,North,-999,0.0,0.0,79,0.00,,,0.00,ow4j130826,2013-09-25 16:23:00,
2013-09-25 09:28:00,55.1,48.5,29.90,North,-999,0.3,1.6,78,0.00,,,0.00,ow4j130826,2013-09-25 16:28:00,
2013-09-25 09:33:00,55.6,48.8,29.90,North,-999,0.2,1.6,78,0.00,,,0.00,ow4j130826,2013-09-25 16:33:00,
2013-09-25 09:38:00,54.1,47.1,29.90,South,170,1.2,4.1,77,0.00,,,0.00,ow4j130826,2013-09-25 16:38:00,
2013-09-25 09:43:00,53.3,45.8,29.90,North,-999,0.1,1.6,76,0.00,,,0.00,ow4j130826,2013-09-25 16:43:00,
2013-09-25 09:48:00,54.2,46.2,29.90,North,-999,0.0,0.8,74,0.00,,,0.00,ow4j130826,2013-09-25 16:48:00,
2013-09-25 09:53:00,54.4,46.0,29.90,North,-999,0.0,0.0,73,0.00,,,0.00,ow4j130826,2013-09-25 16:53:00,
2013-09-25 09:58:00,54.5,45.8,29.90,North,-999,0.1,1.6,73,0.00,,,0.00,ow4j130826,2013-09-25 16:58:00,
2013-09-25 10:03:00,54.5,45.6,29.90,North,-999,0.0,0.0,72,0.00,,,0.00,ow4j130826,2013-09-25 17:03:00,
2013-09-25 10:08:00,54.7,45.7,29.90,North,-999,0.2,1.6,72,0.00,,,0.00,ow4j130826,2013-09-25 17:08:00,
2013-09-25 10:13:00,54.9,45.8,29.90,North,-999,0.0,0.8,71,0.00,,,0.00,ow4j130826,2013-09-25 17:13:00,
2013-09-25 10:18:00,54.0,44.8,29.90,WNW,300,1.9,6.5,71,0.00,,,0.00,ow4j130826,2013-09-25 17:18:00,
2013-09-25 10:23:00,54.4,45.6,29.90,North,-999,0.2,1.6,72,0.00,,,0.00,ow4j130826,2013-09-25 17:23:00,
2013-09-25 10:28:00,54.8,46.8,29.90,North,-999,0.5,2.5,74,0.00,,,0.00,ow4j130826,2013-09-25 17:28:00,
2013-09-25 10:33:00,54.3,46.3,29.90,ESE,117,2.4,9.9,74,0.00,,,0.00,ow4j130826,2013-09-25 17:33:00,
2013-09-25 10:38:00,54.9,46.1,29.90,NW,325,3.7,9.8,72,0.00,,,0.00,ow4j130826,2013-09-25 17:38:00,
2013-09-25 10:43:00,55.9,46.2,29.90,North,-999,0.4,1.6,70,0.00,,,0.00,ow4j130826,2013-09-25 17:43:00,
2013-09-25 10:48:00,55.0,45.4,29.90,North,-999,0.7,2.5,70,0.00,,,0.00,ow4j130826,2013-09-25 17:48:00,
2013-09-25 10:53:00,54.9,45.4,29.90,North,-999,0.9,3.3,70,0.00,,,0.00,ow4j130826,2013-09-25 17:53:00,
2013-09-25 10:58:00,55.7,45.9,29.90,North,-999,0.5,2.5,70,0.00,,,0.00,ow4j130826,2013-09-25 17:58:00,
2013-09-25 11:04:00,56.3,46.2,29.90,North,3,3.4,6.5,69,0.00,,,0.00,ow4j130826,2013-09-25 18:04:00,
2013-09-25 11:09:00,56.1,45.8,29.90,NW,326,2.5,4.9,68,0.00,,,0.00,ow4j130826,2013-09-25 18:09:00,
2013-09-25 11:14:00,55.5,45.0,29.90,NW,321,3.3,5.7,68,0.00,,,0.00,ow4j130826,2013-09-25 18:14:00,
2013-09-25 11:19:00,55.2,44.7,29.90,NW,318,1.6,4.9,68,0.00,,,0.00,ow4j130826,2013-09-25 18:19:00,
2013-09-25 11:24:00,54.9,44.5,29.90,North,-999,0.9,2.5,68,0.00,,,0.00,ow4j130826,2013-09-25 18:24:00,
2013-09-25 11:29:00,55.0,44.8,29.90,NW,321,1.2,2.5,68,0.00,,,0.00,ow4j130826,2013-09-25 18:29:00,
2013-09-25 11:34:00,55.8,45.5,29.90,WNW,287,5.8,18.8,68,0.00,,,0.00,ow4j130826,2013-09-25 18:34:00,
2013-09-25 11:39:00,56.2,45.7,29.90,NW,324,2.9,5.8,68,0.00,,,0.00,ow4j130826,2013-09-25 18:39:00,
2013-09-25 11:44:00,56.2,45.6,29.90,NW,306,2.4,5.7,68,0.00,,,0.00,ow4j130826,2013-09-25 18:44:00,
2013-09-25 11:49:00,56.4,45.5,29.89,NW,317,4.9,7.4,67,0.00,,,0.00,ow4j130826,2013-09-25 18:49:00,
2013-09-25 11:54:00,56.4,45.4,29.89,NW,312,6.2,11.4,66,0.00,,,0.00,ow4j130826,2013-09-25 18:54:00,
2013-09-25 11:59:00,55.9,45.1,29.89,NW,321,4.2,9.8,67,0.00,,,0.00,ow4j130826,2013-09-25 18:59:00,
2013-09-25 12:04:00,55.9,45.4,29.89,WNW,292,4.2,13.1,68,0.00,,,0.00,ow4j130826,2013-09-25 19:04:00,
2013-09-25 12:09:00,56.5,45.8,29.89,North,352,3.6,5.7,67,0.00,,,0.00,ow4j130826,2013-09-25 19:09:00,
2013-09-25 12:14:00,57.2,46.2,29.89,NW,309,4.0,9.0,67,0.00,,,0.00,ow4j130826,2013-09-25 19:14:00,
2013-09-25 12:19:00,57.7,46.1,29.89,NW,312,3.5,6.5,65,0.00,,,0.00,ow4j130826,2013-09-25 19:19:00,
2013-09-25 12:24:00,57.6,45.7,29.89,NNW,339,4.0,5.7,65,0.00,,,0.00,ow4j130826,2013-09-25 19:24:00,
2013-09-25 12:29:00,57.6,46.0,29.89,NW,316,4.6,7.4,65,0.00,,,0.00,ow4j130826,2013-09-25 19:29:00,
2013-09-25 12:34:00,58.0,46.1,29.89,NW,306,4.4,7.4,64,0.00,,,0.00,ow4j130826,2013-09-25 19:34:00,
2013-09-25 12:39:00,57.8,45.9,29.89,NW,324,5.0,7.4,64,0.00,,,0.00,ow4j130826,2013-09-25 19:39:00,
2013-09-25 12:44:00,57.8,46.2,29.89,NW,315,4.5,8.2,65,0.00,,,0.00,ow4j130826,2013-09-25 19:44:00,
2013-09-25 12:49:00,57.4,46.0,29.89,WNW,290,7.3,14.7,66,0.00,,,0.00,ow4j130826,2013-09-25 19:49:00,
2013-09-25 12:54:00,56.7,45.3,29.89,WNW,299,6.3,13.1,65,0.00,,,0.00,ow4j130826,2013-09-25 19:54:00,
2013-09-25 12:59:00,55.8,44.6,29.89,WNW,297,8.4,18.1,66,0.00,,,0.00,ow4j130826,2013-09-25 19:59:00,
2013-09-25 13:04:00,55.6,44.6,29.89,NW,314,5.5,11.4,66,0.00,,,0.00,ow4j130826,2013-09-25 20:04:00,
2013-09-25 13:09:00,55.4,44.5,29.89,NNW,330,6.3,9.8,67,0.00,,,0.00,ow4j130826,2013-09-25 20:09:00,
2013-09-25 13:14:00,56.0,45.0,29.89,WNW,303,7.7,13.1,67,0.00,,,0.00,ow4j130826,2013-09-25 20:14:00,
2013-09-25 13:19:00,57.1,46.4,29.90,NW,315,6.7,11.4,67,0.00,,,0.00,ow4j130826,2013-09-25 20:19:00,
2013-09-25 13:24:00,57.5,46.8,29.90,WNW,293,8.7,14.1,67,0.00,,,0.00,ow4j130826,2013-09-25 20:24:00,
2013-09-25 13:29:00,57.6,46.7,29.90,NW,321,4.4,6.5,67,0.00,,,0.00,ow4j130826,2013-09-25 20:29:00,
2013-09-25 13:34:00,57.9,46.9,29.90,NW,316,5.4,9.7,67,0.00,,,0.00,ow4j130826,2013-09-25 20:34:00,
2013-09-25 13:39:00,58.7,47.5,29.89,WNW,293,8.4,19.6,66,0.00,,,0.00,ow4j130826,2013-09-25 20:39:00,
2013-09-25 13:44:00,57.6,46.1,29.89,West,279,8.0,17.1,65,0.00,,,0.00,ow4j130826,2013-09-25 20:44:00,
2013-09-25 13:49:00,57.8,46.1,29.89,WNW,295,6.5,13.1,65,0.00,,,0.00,ow4j130826,2013-09-25 20:49:00,
2013-09-25 13:54:00,59.0,47.1,29.89,NW,304,6.3,10.6,65,0.00,,,0.00,ow4j130826,2013-09-25 20:54:00,
2013-09-25 13:59:00,59.0,46.9,29.89,WNW,288,6.3,13.9,64,0.00,,,0.00,ow4j130826,2013-09-25 20:59:00,
2013-09-25 14:04:00,58.9,46.6,29.89,WNW,289,7.6,13.1,64,0.00,,,0.00,ow4j130826,2013-09-25 21:04:00,
2013-09-25 14:09:00,58.9,46.5,29.89,WNW,292,7.7,22.1,63,0.00,,,0.00,ow4j130826,2013-09-25 21:09:00,
2013-09-25 14:14:00,58.6,46.2,29.89,WNW,284,10.0,22.7,63,0.00,,,0.00,ow4j130826,2013-09-25 21:14:00,
2013-09-25 14:19:00,58.1,45.4,29.89,WNW,294,7.8,15.5,62,0.00,,,0.00,ow4j130826,2013-09-25 21:19:00,
2013-09-25 14:24:00,57.1,44.2,29.89,NW,307,7.9,16.3,62,0.00,,,0.00,ow4j130826,2013-09-25 21:24:00,
2013-09-25 14:29:00,55.7,42.7,29.89,WNW,292,7.7,12.1,61,0.00,,,0.00,ow4j130826,2013-09-25 21:29:00,
2013-09-25 14:34:00,56.4,43.0,29.89,NW,304,6.5,10.6,61,0.00,,,0.00,ow4j130826,2013-09-25 21:34:00,
2013-09-25 14:39:00,57.9,44.3,29.89,WNW,299,9.1,15.5,60,0.00,,,0.00,ow4j130826,2013-09-25 21:39:00,
2013-09-25 14:44:00,58.9,45.6,29.89,NW,314,6.1,11.4,61,0.00,,,0.00,ow4j130826,2013-09-25 21:44:00,
2013-09-25 14:49:00,59.0,45.8,29.89,West,280,8.2,16.3,61,0.00,,,0.00,ow4j130826,2013-09-25 21:49:00,
2013-09-25 14:54:00,58.9,45.5,29.89,WNW,293,6.3,13.1,61,0.00,,,0.00,ow4j130826,2013-09-25 21:54:00,
2013-09-25 14:59:00,59.4,45.9,29.89,West,272,7.4,13.9,61,0.00,,,0.00,ow4j130826,2013-09-25 21:59:00,
2013-09-25 15:04:00,59.6,45.7,29.89,WNW,298,8.2,14.7,60,0.00,,,0.00,ow4j130826,2013-09-25 22:04:00,
2013-09-25 15:09:00,59.8,45.6,29.90,WNW,302,5.9,11.4,60,0.00,,,0.00,ow4j130826,2013-09-25 22:09:00,
2013-09-25 15:14:00,59.3,45.5,29.90,NW,308,6.5,9.8,60,0.00,,,0.00,ow4j130826,2013-09-25 22:14:00,
2013-09-25 15:19:00,59.1,45.3,29.89,WNW,301,7.4,13.1,60,0.00,,,0.00,ow4j130826,2013-09-25 22:19:00,
2013-09-25 15:25:00,59.2,45.4,29.89,NW,315,5.8,10.6,60,0.00,,,0.00,ow4j130826,2013-09-25 22:25:00,
2013-09-25 15:30:00,59.4,45.8,29.89,NW,314,4.7,6.5,61,0.00,,,0.00,ow4j130826,2013-09-25 22:30:00,
2013-09-25 15:35:00,59.7,46.4,29.89,WNW,287,5.8,14.7,61,0.00,,,0.00,ow4j130826,2013-09-25 22:35:00,
2013-09-25 15:40:00,60.0,46.6,29.89,WNW,294,5.5,14.7,61,0.00,,,0.00,ow4j130826,2013-09-25 22:40:00,
2013-09-25 15:45:00,60.0,46.3,29.89,NW,307,5.3,9.7,60,0.00,,,0.00,ow4j130826,2013-09-25 22:45:00,
2013-09-25 15:50:00,60.0,46.1,29.90,NW,318,5.0,9.0,60,0.00,,,0.00,ow4j130826,2013-09-25 22:50:00,
2013-09-25 15:55:00,60.0,46.0,29.90,NNW,327,3.3,5.7,60,0.00,,,0.00,ow4j130826,2013-09-25 22:55:00,
2013-09-25 16:00:00,60.0,46.1,29.89,NNW,334,4.5,8.2,60,0.00,,,0.00,ow4j130826,2013-09-25 23:00:00,
2013-09-25 16:05:00,59.8,46.0,29.89,NW,304,4.1,11.5,60,0.00,,,0.00,ow4j130826,2013-09-25 23:05:00,
2013-09-25 16:10:00,60.0,46.1,29.89,NW,321,3.8,7.4,60,0.00,,,0.00,ow4j130826,2013-09-25 23:10:00,
2013-09-25 16:15:00,60.0,45.9,29.89,WNW,289,4.4,17.2,60,0.00,,,0.00,ow4j130826,2013-09-25 23:15:00,
2013-09-25 16:20:00,59.8,45.1,29.90,NW,308,2.8,5.0,58,0.00,,,0.00,ow4j130826,2013-09-25 23:20:00,
2013-09-25 16:25:00,60.1,44.9,29.90,NW,310,1.3,4.0,58,0.00,,,0.00,ow4j130826,2013-09-25 23:25:00,
2013-09-25 16:30:00,60.3,44.9,29.89,West,263,2.4,5.7,57,0.00,,,0.00,ow4j130826,2013-09-25 23:30:00,
2013-09-25 16:35:00,60.6,44.5,29.89,WNW,292,5.1,15.5,55,0.00,,,0.00,ow4j130826,2013-09-25 23:35:00,
2013-09-25 16:40:00,60.4,43.8,29.90,West,272,6.7,17.1,54,0.00,,,0.00,ow4j130826,2013-09-25 23:40:00,
2013-09-25 16:45:00,60.1,43.4,29.90,WNW,293,3.8,7.4,54,0.00,,,0.00,ow4j130826,2013-09-25 23:45:00,
2013-09-25 16:50:00,60.1,43.4,29.90,West,268,8.0,13.1,54,0.00,,,0.00,ow4j130826,2013-09-25 23:50:00,
2013-09-25 16:55:00,60.1,43.7,29.90,West,267,6.3,12.3,55,0.00,,,0.00,ow4j130826,2013-09-25 23:55:00,
2013-09-25 17:00:00,60.2,44.2,29.91,WNW,301,4.4,8.2,56,0.00,,,0.00,ow4j130826,2013-09-26 00:00:00,
2013-09-25 17:05:00,59.9,44.4,29.91,NW,308,2.3,7.3,56,0.00,,,0.00,ow4j130826,2013-09-26 00:05:00,
2013-09-25 17:10:00,60.1,44.7,29.90,NW,317,1.4,4.1,57,0.00,,,0.00,ow4j130826,2013-09-26 00:10:00,
2013-09-25 17:15:00,60.7,45.1,29.90,WNW,296,3.8,10.7,56,0.00,,,0.00,ow4j130826,2013-09-26 00:15:00,
2013-09-25 17:20:00,61.1,45.2,29.91,WNW,298,3.0,6.5,56,0.00,,,0.00,ow4j130826,2013-09-26 00:20:00,
2013-09-25 17:25:00,60.9,45.2,29.91,NW,314,1.5,3.3,56,0.00,,,0.00,ow4j130826,2013-09-26 00:25:00,
2013-09-25 17:30:00,60.6,45.1,29.91,NW,314,2.2,4.9,57,0.00,,,0.00,ow4j130826,2013-09-26 00:30:00,
2013-09-25 17:35:00,60.5,45.1,29.91,WNW,299,2.1,4.1,57,0.00,,,0.00,ow4j130826,2013-09-26 00:35:00,
2013-09-25 17:40:00,60.4,45.1,29.91,WSW,258,5.5,9.0,57,0.00,,,0.00,ow4j130826,2013-09-26 00:40:00,
2013-09-25 17:45:00,60.0,44.8,29.91,West,259,6.4,12.3,57,0.00,,,0.00,ow4j130826,2013-09-26 00:45:00,
2013-09-25 17:50:00,59.9,44.7,29.91,WNW,291,2.3,5.7,57,0.00,,,0.00,ow4j130826,2013-09-26 00:50:00,
2013-09-25 17:55:00,59.8,44.9,29.91,WNW,288,3.4,9.0,58,0.00,,,0.00,ow4j130826,2013-09-26 00:55:00,
2013-09-25 18:00:00,59.5,44.9,29.91,WNW,300,1.5,4.9,58,0.00,,,0.00,ow4j130826,2013-09-26 01:00:00,
2013-09-25 18:05:00,59.3,44.9,29.91,SW,219,3.8,7.3,59,0.00,,,0.00,ow4j130826,2013-09-26 01:05:00,
2013-09-25 18:10:00,59.2,45.3,29.91,North,-999,0.3,2.5,60,0.00,,,0.00,ow4j130826,2013-09-26 01:10:00,
2013-09-25 18:15:00,59.6,46.2,29.91,North,-999,0.8,3.3,61,0.00,,,0.00,ow4j130826,2013-09-26 01:15:00,
2013-09-25 18:20:00,60.2,46.6,29.91,SW,236,2.5,5.7,61,0.00,,,0.00,ow4j130826,2013-09-26 01:20:00,
2013-09-25 18:25:00,59.9,46.6,29.91,SSE,163,1.4,4.1,61,0.00,,,0.00,ow4j130826,2013-09-26 01:25:00,
2013-09-25 18:30:00,58.9,46.7,29.91,SE,146,2.5,4.0,64,0.00,,,0.00,ow4j130826,2013-09-26 01:30:00,
2013-09-25 18:35:00,56.8,46.1,29.91,SE,144,2.5,6.5,68,0.00,,,0.00,ow4j130826,2013-09-26 01:35:00,
2013-09-25 18:41:00,54.5,45.2,29.91,SE,141,3.2,6.5,71,0.00,,,0.00,ow4j130826,2013-09-26 01:41:00,
2013-09-25 18:46:00,53.2,44.6,29.91,SSE,163,1.5,4.9,73,0.00,,,0.00,ow4j130826,2013-09-26 01:46:00,
2013-09-25 18:51:00,53.6,45.7,29.91,SW,220,4.4,7.4,74,0.00,,,0.00,ow4j130826,2013-09-26 01:51:00,
2013-09-25 18:56:00,54.9,47.4,29.91,SW,227,2.3,4.1,76,0.00,,,0.00,ow4j130826,2013-09-26 01:56:00,
2013-09-25 19:01:00,54.4,47.3,29.91,North,-999,0.2,1.6,77,0.00,,,0.00,ow4j130826,2013-09-26 02:01:00,
2013-09-25 19:06:00,53.5,46.4,29.91,North,-999,0.2,1.7,77,0.00,,,0.00,ow4j130826,2013-09-26 02:06:00,
2013-09-25 19:11:00,52.5,45.5,29.91,North,-999,0.0,0.8,77,0.00,,,0.00,ow4j130826,2013-09-26 02:11:00,
2013-09-25 19:16:00,51.9,45.0,29.91,North,-999,0.2,3.3,77,0.00,,,0.00,ow4j130826,2013-09-26 02:16:00,
2013-09-25 19:21:00,51.5,44.8,29.91,North,-999,0.0,0.0,78,0.00,,,0.00,ow4j130826,2013-09-26 02:21:00,
2013-09-25 19:26:00,51.1,44.6,29.92,SW,228,2.7,4.9,78,0.00,,,0.00,ow4j130826,2013-09-26 02:26:00,
2013-09-25 19:31:00,50.7,44.7,29.92,SW,229,2.1,4.1,80,0.00,,,0.00,ow4j130826,2013-09-26 02:31:00,
2013-09-25 19:36:00,50.5,44.8,29.92,North,-999,0.9,2.4,81,0.00,,,0.00,ow4j130826,2013-09-26 02:36:00,
2013-09-25 19:41:00,50.4,44.8,29.92,North,-999,0.6,3.3,81,0.00,,,0.00,ow4j130826,2013-09-26 02:41:00,
2013-09-25 19:46:00,50.2,44.7,29.92,North,-999,0.2,1.7,81,0.00,,,0.00,ow4j130826,2013-09-26 02:46:00,
2013-09-25 19:51:00,50.0,44.7,29.92,SW,226,1.6,3.3,82,0.00,,,0.00,ow4j130826,2013-09-26 02:51:00,
2013-09-25 19:56:00,49.7,44.5,29.92,WSW,239,1.2,4.1,82,0.00,,,0.00,ow4j130826,2013-09-26 02:56:00,
2013-09-25 20:01:00,49.6,44.5,29.92,North,-999,0.0,0.0,82,0.00,,,0.00,ow4j130826,2013-09-26 03:01:00,
2013-09-25 20:06:00,49.7,44.6,29.92,North,-999,0.8,3.3,82,0.00,,,0.00,ow4j130826,2013-09-26 03:06:00,
2013-09-25 20:11:00,49.7,44.4,29.92,North,-999,0.0,0.0,82,0.00,,,0.00,ow4j130826,2013-09-26 03:11:00,
2013-09-25 20:16:00,49.3,44.0,29.92,North,-999,0.2,1.6,82,0.00,,,0.00,ow4j130826,2013-09-26 03:16:00,
2013-09-25 20:21:00,49.3,44.1,29.92,North,-999,0.0,0.8,82,0.00,,,0.00,ow4j130826,2013-09-26 03:21:00,
2013-09-25 20:26:00,49.0,43.9,29.93,North,-999,0.0,0.0,83,0.00,,,0.00,ow4j130826,2013-09-26 03:26:00,
2013-09-25 20:31:00,48.8,43.8,29.93,North,-999,0.0,0.0,83,0.00,,,0.00,ow4j130826,2013-09-26 03:31:00,
2013-09-25 20:36:00,48.8,43.9,29.93,North,-999,0.3,1.6,83,0.00,,,0.00,ow4j130826,2013-09-26 03:36:00,
2013-09-25 20:41:00,48.5,43.6,29.93,North,-999,0.3,3.3,83,0.00,,,0.00,ow4j130826,2013-09-26 03:41:00,
2013-09-25 20:46:00,48.4,43.8,29.93,West,260,2.5,4.9,84,0.00,,,0.00,ow4j130826,2013-09-26 03:46:00,
2013-09-25 20:51:00,48.8,44.5,29.93,North,-999,0.7,3.3,85,0.00,,,0.00,ow4j130826,2013-09-26 03:51:00,
2013-09-25 20:56:00,48.9,44.8,29.94,WSW,253,2.0,3.3,85,0.00,,,0.00,ow4j130826,2013-09-26 03:56:00,
2013-09-25 21:01:00,48.9,44.7,29.94,North,-999,0.0,0.0,85,0.00,,,0.00,ow4j130826,2013-09-26 04:01:00,
2013-09-25 21:02:00,48.9,44.7,29.94,North,-999,0.0,0.0,85,0.00,,,0.00,ow4j130826,2013-09-26 04:02:00,
2013-09-25 21:07:00,48.9,44.7,29.94,West,264,2.9,4.9,85,0.00,,,0.00,ow4j130826,2013-09-26 04:07:00,
2013-09-25 21:12:00,49.0,44.9,29.94,North,-999,0.0,0.8,86,0.00,,,0.00,ow4j130826,2013-09-26 04:12:00,
2013-09-25 21:17:00,49.4,45.4,29.94,North,-999,0.0,0.0,86,0.00,,,0.00,ow4j130826,2013-09-26 04:17:00,
2013-09-25 21:22:00,49.3,45.1,29.94,North,-999,0.0,0.0,86,0.00,,,0.00,ow4j130826,2013-09-26 04:22:00,
2013-09-25 21:27:00,48.4,44.0,29.95,North,-999,0.0,0.8,85,0.00,,,0.00,ow4j130826,2013-09-26 04:27:00,
2013-09-25 21:32:00,48.3,44.2,29.95,West,260,4.6,7.4,85,0.00,,,0.00,ow4j130826,2013-09-26 04:32:00,
2013-09-25 21:37:00,48.3,44.2,29.95,North,-999,0.3,2.5,86,0.00,,,0.00,ow4j130826,2013-09-26 04:37:00,
2013-09-25 21:42:00,48.7,44.5,29.95,North,-999,0.0,0.0,85,0.00,,,0.00,ow4j130826,2013-09-26 04:42:00,
2013-09-25 21:47:00,48.7,44.4,29.95,West,262,1.1,3.3,85,0.00,,,0.00,ow4j130826,2013-09-26 04:47:00,
2013-09-25 21:52:00,48.5,44.0,29.95,North,-999,0.2,2.5,84,0.00,,,0.00,ow4j130826,2013-09-26 04:52:00,
2013-09-25 21:57:00,48.6,44.0,29.95,WSW,253,2.8,4.9,84,0.00,,,0.00,ow4j130826,2013-09-26 04:57:00,
2013-09-25 22:02:00,49.0,44.2,29.95,SW,234,2.5,4.9,83,0.00,,,0.00,ow4j130826,2013-09-26 05:02:00,
2013-09-25 22:07:00,49.4,44.3,29.94,WSW,240,1.4,5.8,82,0.00,,,0.00,ow4j130826,2013-09-26 05:07:00,
2013-09-25 22:12:00,48.9,43.6,29.94,SW,232,1.4,4.1,82,0.00,,,0.00,ow4j130826,2013-09-26 05:12:00,
2013-09-25 22:17:00,48.6,43.3,29.94,WSW,242,3.1,4.9,82,0.00,,,0.00,ow4j130826,2013-09-26 05:17:00,
2013-09-25 22:22:00,48.9,43.6,29.94,SW,233,2.9,4.9,82,0.00,,,0.00,ow4j130826,2013-09-26 05:22:00,
2013-09-25 22:27:00,48.8,43.6,29.94,WSW,242,1.8,5.4,82,0.00,,,0.00,ow4j130826,2013-09-26 05:27:00,
2013-09-25 22:32:00,49.1,43.9,29.94,WSW,244,2.9,4.9,82,0.00,,,0.00,ow4j130826,2013-09-26 05:32:00,
2013-09-25 22:37:00,49.7,44.5,29.94,WSW,247,4.3,10.6,82,0.00,,,0.00,ow4j130826,2013-09-26 05:37:00,
2013-09-25 22:42:00,50.0,44.8,29.94,SW,228,2.7,5.7,82,0.00,,,0.00,ow4j130826,2013-09-26 05:42:00,
2013-09-25 22:47:00,49.7,44.4,29.94,WSW,237,3.5,5.7,82,0.00,,,0.00,ow4j130826,2013-09-26 05:47:00,
2013-09-25 22:52:00,49.4,44.2,29.94,SW,234,3.6,6.3,82,0.00,,,0.00,ow4j130826,2013-09-26 05:52:00,
2013-09-25 22:57:00,49.4,44.2,29.94,WSW,240,3.5,8.2,82,0.00,,,0.00,ow4j130826,2013-09-26 05:57:00,
2013-09-25 23:02:00,49.9,44.6,29.95,WSW,237,2.8,5.0,82,0.00,,,0.00,ow4j130826,2013-09-26 06:02:00,
2013-09-25 23:07:00,50.0,45.0,29.95,SW,214,1.6,6.5,83,0.00,,,0.00,ow4j130826,2013-09-26 06:07:00,
2013-09-25 23:12:00,49.5,44.5,29.95,North,-999,0.6,3.3,83,0.00,,,0.00,ow4j130826,2013-09-26 06:12:00,
2013-09-25 23:17:00,49.2,44.2,29.96,North,-999,0.0,0.0,83,0.00,,,0.00,ow4j130826,2013-09-26 06:17:00,
2013-09-25 23:22:00,49.1,44.2,29.96,SW,221,1.3,4.1,83,0.00,,,0.00,ow4j130826,2013-09-26 06:22:00,
2013-09-25 23:27:00,48.8,43.9,29.96,North,-999,0.4,1.6,83,0.00,,,0.00,ow4j130826,2013-09-26 06:27:00,
2013-09-25 23:32:00,48.6,43.9,29.96,SE,144,2.7,8.2,84,0.00,,,0.00,ow4j130826,2013-09-26 06:32:00,
2013-09-25 23:37:00,48.6,44.2,29.96,North,-999,0.0,0.0,85,0.00,,,0.00,ow4j130826,2013-09-26 06:37:00,
2013-09-25 23:42:00,48.6,44.2,29.96,North,-999,0.2,0.8,85,0.00,,,0.00,ow4j130826,2013-09-26 06:42:00,
2013-09-25 23:47:00,48.5,44.2,29.96,SSW,193,1.4,4.1,85,0.00,,,0.00,ow4j130826,2013-09-26 06:47:00,
2013-09-25 23:52:00,48.6,44.4,29.96,North,-999,0.6,5.7,85,0.00,,,0.00,ow4j130826,2013-09-26 06:52:00,
2013-09-25 23:57:00,48.3,44.3,29.96,North,-999,0.0,0.0,86,0.00,,,0.00,ow4j130826,2013-09-26 06:57:00,